Time;durP1;ratioP1;P1;durP2;ratioP2;P2;SDS_P1;SDS_P2;PMS_P1;PMS_P2;Temp;Humidity;BMP_temperature;BMP_pressure;BME280_temperature;BME280_humidity;BME280_pressure;Samples;Min_cycle;Max_cycle;Signal;HPM_P1;HPM_P2
2023/02/06 00:01:35;;;;;;;;;;;;;;;9.13;47.36;102595.81;5034410;28;19913;-77
2023/02/06 00:04:27;;;;;;;;;;;;;;;8.94;47.57;102608.13;5031402;28;19913;-77
2023/02/06 00:07:19;;;;;;;;;;;;;;;9.26;47.00;102606.22;5031097;28;20305;-77
2023/02/06 00:10:12;;;;;;;;;;;;;;;9.25;47.68;102610.00;5032014;28;19913;-77
2023/02/06 00:13:01;;;;;;;;;;;;;;;8.95;47.96;102610.56;5033829;28;19917;-76
2023/02/06 00:15:53;;;;;;;;;;;;;;;9.13;48.22;102609.38;5031846;28;19913;-77
2023/02/06 00:18:43;;;;;;;;;;;;;;;9.38;48.26;102619.63;5035047;28;19913;-77
2023/02/06 00:21:35;;;;;;;;;;;;;;;9.33;48.86;102612.25;5033678;28;20293;-77
2023/02/06 00:24:27;;;;;;;;;;;;;;;9.36;48.56;102622.59;5030659;28;19912;-77
2023/02/06 00:27:19;;;;;;;;;;;;;;;9.28;48.85;102611.41;5038546;28;19912;-76
2023/02/06 00:30:11;;;;;;;;;;;;;;;9.28;48.10;102612.22;5035170;28;20377;-77
2023/02/06 00:33:03;;;;;;;;;;;;;;;9.30;48.40;102623.63;5019053;28;19917;-77
2023/02/06 00:35:56;;;;;;;;;;;;;;;9.15;48.28;102620.78;5030322;28;19912;-76
2023/02/06 00:38:48;;;;;;;;;;;;;;;9.02;49.17;102629.38;5013472;28;20301;-77
2023/02/06 00:41:40;;;;;;;;;;;;;;;9.04;49.69;102629.91;5022615;28;19921;-77
2023/02/06 00:44:30;;;;;;;;;;;;;;;9.12;50.27;102632.16;5036837;28;19912;-77
2023/02/06 00:47:22;;;;;;;;;;;;;;;9.17;49.96;102634.94;5025015;28;19913;-77
2023/02/06 00:50:14;;;;;;;;;;;;;;;9.30;49.94;102626.34;5034721;28;20285;-76
2023/02/06 00:53:06;;;;;;;;;;;;;;;9.10;48.52;102622.63;5041923;28;19917;-77
2023/02/06 00:55:57;;;;;;;;;;;;;;;9.36;47.17;102619.88;5024716;28;19917;-76
2023/02/06 00:58:49;;;;;;;;;;;;;;;9.59;46.22;102623.31;5036713;28;19913;-76
2023/02/06 01:01:38;;;;;;;;;;;;;;;9.36;46.49;102632.63;5034905;28;19913;-76
2023/02/06 01:04:28;;;;;;;;;;;;;;;9.31;47.09;102624.44;5024022;28;20273;-76
2023/02/06 01:07:21;;;;;;;;;;;;;;;9.33;46.62;102633.97;5021641;28;20381;-76
2023/02/06 01:10:13;;;;;;;;;;;;;;;9.24;46.89;102635.53;5034235;28;19913;-76
2023/02/06 01:13:06;;;;;;;;;;;;;;;9.26;47.25;102637.97;5022703;28;20388;-77
2023/02/06 01:15:58;;;;;;;;;;;;;;;9.24;46.81;102638.25;5034749;28;20522;-76
2023/02/06 01:18:52;;;;;;;;;;;;;;;9.18;48.11;102636.56;5022250;28;19913;-76
2023/02/06 01:21:42;;;;;;;;;;;;;;;9.21;47.88;102625.19;5034299;28;19913;-77
2023/02/06 01:24:34;;;;;;;;;;;;;;;9.07;48.11;102632.13;5033970;28;19913;-77
2023/02/06 01:27:25;;;;;;;;;;;;;;;9.24;47.40;102626.59;5033790;28;19916;-77
2023/02/06 01:30:17;;;;;;;;;;;;;;;9.06;49.18;102616.09;5033831;28;19913;-77
2023/02/06 01:33:09;;;;;;;;;;;;;;;9.11;48.24;102622.38;5019051;28;19921;-76
2023/02/06 01:36:04;;;;;;;;;;;;;;;9.13;48.81;102622.13;5022290;28;19913;-77
2023/02/06 01:38:57;;;;;;;;;;;;;;;9.17;47.58;102618.66;5027497;28;19913;-77
2023/02/06 01:41:49;;;;;;;;;;;;;;;8.80;49.23;102618.56;5030945;28;19913;-77
2023/02/06 01:44:42;;;;;;;;;;;;;;;8.92;48.80;102615.72;5033623;28;19913;-77
2023/02/06 01:47:35;;;;;;;;;;;;;;;8.92;48.80;102610.28;5034748;28;19913;-77
2023/02/06 01:50:27;;;;;;;;;;;;;;;8.61;48.96;102614.59;5037379;28;19917;-77
2023/02/06 01:53:19;;;;;;;;;;;;;;;8.50;49.53;102618.25;5035195;28;20313;-76
2023/02/06 01:56:11;;;;;;;;;;;;;;;8.54;51.35;102625.63;5033781;28;19913;-77
2023/02/06 01:59:04;;;;;;;;;;;;;;;8.54;50.15;102617.50;5022025;28;19913;-77
2023/02/06 02:01:54;;;;;;;;;;;;;;;8.48;49.83;102623.13;5031415;28;20381;-76
2023/02/06 02:04:44;;;;;;;;;;;;;;;8.39;50.54;102622.75;5038217;28;19913;-76
2023/02/06 02:07:37;;;;;;;;;;;;;;;8.51;49.92;102615.31;5019351;28;19917;-76
2023/02/06 02:10:30;;;;;;;;;;;;;;;8.59;50.18;102622.97;5032367;28;19917;-76
2023/02/06 02:13:19;;;;;;;;;;;;;;;8.54;49.75;102622.09;5036692;28;20309;-76
2023/02/06 02:16:12;;;;;;;;;;;;;;;8.33;50.54;102612.13;5017992;28;19913;-77
2023/02/06 02:19:15;;;;;;;;;;;;;;;8.53;49.86;102615.84;5022990;28;19921;-77
2023/02/06 02:22:17;;;;;;;;;;;;;;;8.46;50.21;102612.53;5022270;28;19964;-77
2023/02/06 02:25:23;;;;;;;;;;;;;;;8.29;50.62;102613.63;5033241;28;19913;-76
2023/02/06 02:28:33;;;;;;;;;;;;;;;8.34;50.34;102619.97;5027099;28;19917;-76
2023/02/06 02:31:31;;;;;;;;;;;;;;;8.12;51.21;102622.69;5021258;28;19913;-77
2023/02/06 02:34:33;;;;;;;;;;;;;;;8.05;51.38;102624.75;5021204;28;19917;-77
2023/02/06 02:37:37;;;;;;;;;;;;;;;7.99;51.57;102624.91;5018421;28;20282;-77
2023/02/06 02:40:33;;;;;;;;;;;;;;;8.05;51.28;102626.63;5024577;28;19913;-77
2023/02/06 02:43:29;;;;;;;;;;;;;;;7.95;52.10;102637.34;5018826;28;19912;-76
2023/02/06 02:46:33;;;;;;;;;;;;;;;7.94;51.99;102641.94;5036651;28;19912;-77
2023/02/06 02:49:26;;;;;;;;;;;;;;;8.03;51.48;102639.59;5018985;28;19913;-76
2023/02/06 02:52:18;;;;;;;;;;;;;;;7.98;51.76;102642.25;5038413;28;19913;-77
2023/02/06 02:55:20;;;;;;;;;;;;;;;8.29;51.14;102638.84;5023153;28;20301;-79
2023/02/06 02:58:17;;;;;;;;;;;;;;;8.28;51.48;102642.63;5021880;28;19913;-78
2023/02/06 03:01:10;;;;;;;;;;;;;;;8.31;51.17;102642.19;5021232;28;20289;-76
2023/02/06 03:04:04;;;;;;;;;;;;;;;8.12;50.79;102638.13;5032191;28;20397;-76
2023/02/06 03:07:10;;;;;;;;;;;;;;;8.24;52.31;102643.41;5015637;28;19917;-76
2023/02/06 03:10:16;;;;;;;;;;;;;;;8.06;52.29;102644.53;5011375;28;19917;-76
2023/02/06 03:13:15;;;;;;;;;;;;;;;8.09;52.10;102627.75;5014588;28;20368;-79
2023/02/06 03:16:13;;;;;;;;;;;;;;;8.39;50.99;102625.47;5032730;28;19917;-80
2023/02/06 03:19:07;;;;;;;;;;;;;;;8.11;51.71;102622.94;5024148;28;20285;-79
2023/02/06 03:22:02;;;;;;;;;;;;;;;8.04;51.80;102614.16;5031153;28;20392;-79
2023/02/06 03:24:55;;;;;;;;;;;;;;;7.84;52.12;102608.47;5020023;28;19913;-79
2023/02/06 03:27:48;;;;;;;;;;;;;;;7.86;51.95;102614.47;5035925;28;19913;-79
2023/02/06 03:30:41;;;;;;;;;;;;;;;8.01;52.36;102615.50;5041778;28;20117;-79
2023/02/06 03:33:35;;;;;;;;;;;;;;;7.92;52.43;102616.19;5039258;28;19917;-79
2023/02/06 03:36:27;;;;;;;;;;;;;;;8.11;52.26;102617.50;5042485;28;19913;-79
2023/02/06 03:39:20;;;;;;;;;;;;;;;8.31;51.40;102627.81;5040726;28;19913;-79
2023/02/06 03:42:12;;;;;;;;;;;;;;;8.45;51.10;102632.59;5038517;28;19913;-79
2023/02/06 03:45:09;;;;;;;;;;;;;;;8.16;51.73;102637.34;5039899;28;19913;-79
2023/02/06 03:48:03;;;;;;;;;;;;;;;8.08;51.85;102639.66;5033256;28;19917;-80
2023/02/06 03:50:53;;;;;;;;;;;;;;;8.27;52.08;102638.31;5035777;28;19913;-80
2023/02/06 03:53:46;;;;;;;;;;;;;;;8.13;51.91;102637.03;5040595;28;19917;-79
2023/02/06 03:56:49;;;;;;;;;;;;;;;8.20;51.64;102636.84;5038798;28;19913;-79
2023/02/06 03:59:41;;;;;;;;;;;;;;;8.54;50.68;102647.31;5042658;28;19913;-79
2023/02/06 04:02:33;;;;;;;;;;;;;;;8.29;52.15;102644.28;5043607;28;19913;-79
2023/02/06 04:05:22;;;;;;;;;;;;;;;8.53;52.69;102651.09;5046316;28;19917;-79
2023/02/06 04:08:12;;;;;;;;;;;;;;;8.53;51.98;102663.84;5044108;28;19913;-79
2023/02/06 04:11:04;;;;;;;;;;;;;;;8.09;52.33;102663.81;5043177;28;19913;-79
2023/02/06 04:13:56;;;;;;;;;;;;;;;8.30;52.88;102678.47;5046283;28;20382;-80
2023/02/06 04:16:48;;;;;;;;;;;;;;;7.27;54.47;102679.88;5044164;28;19913;-79
2023/02/06 04:19:40;;;;;;;;;;;;;;;7.08;55.34;102685.75;5040992;28;19913;-79
2023/02/06 04:22:32;;;;;;;;;;;;;;;7.14;55.31;102679.38;5046051;28;19913;-79
2023/02/06 04:25:22;;;;;;;;;;;;;;;7.27;54.73;102681.75;5049714;28;20292;-79
2023/02/06 04:28:14;;;;;;;;;;;;;;;7.24;55.34;102676.84;5046201;28;19913;-79
2023/02/06 04:31:06;;;;;;;;;;;;;;;7.36;55.05;102680.31;5043073;28;19913;-79
2023/02/06 04:33:58;;;;;;;;;;;;;;;7.04;56.27;102682.72;5042546;28;20385;-79
2023/02/06 04:36:50;;;;;;;;;;;;;;;6.81;57.42;102675.53;5046089;28;19913;-79
2023/02/06 04:39:42;;;;;;;;;;;;;;;7.04;56.46;102676.50;5044376;28;19913;-79
2023/02/06 04:42:34;;;;;;;;;;;;;;;7.48;55.25;102674.81;5040758;28;19913;-79
2023/02/06 04:45:27;;;;;;;;;;;;;;;7.31;55.37;102669.41;5046235;28;19917;-79
2023/02/06 04:48:16;;;;;;;;;;;;;;;7.53;55.08;102664.06;5042273;28;19913;-78
2023/02/06 04:51:08;;;;;;;;;;;;;;;7.91;54.03;102668.72;5039704;28;20373;-79
2023/02/06 04:54:00;;;;;;;;;;;;;;;7.79;54.30;102678.81;5023497;28;19917;-79
2023/02/06 04:56:52;;;;;;;;;;;;;;;7.19;56.51;102672.19;5039438;28;19913;-79
2023/02/06 04:59:44;;;;;;;;;;;;;;;7.45;56.70;102667.19;5041541;28;19913;-78
2023/02/06 05:02:38;;;;;;;;;;;;;;;7.54;56.12;102673.81;5042223;28;19916;-79
2023/02/06 05:05:27;;;;;;;;;;;;;;;7.80;55.28;102683.16;5040035;28;19913;-79
2023/02/06 05:08:19;;;;;;;;;;;;;;;7.81;55.36;102677.50;5043692;28;19913;-79
2023/02/06 05:11:11;;;;;;;;;;;;;;;7.72;56.10;102679.78;5036671;28;19923;-78
2023/02/06 05:14:03;;;;;;;;;;;;;;;7.48;56.39;102672.91;5043617;28;19917;-79
2023/02/06 05:16:55;;;;;;;;;;;;;;;7.03;57.91;102672.16;5035453;28;19913;-79
2023/02/06 05:19:47;;;;;;;;;;;;;;;7.17;58.40;102678.88;5035590;28;19916;-79
2023/02/06 05:22:39;;;;;;;;;;;;;;;7.47;58.22;102676.69;5044452;28;19913;-79
2023/02/06 05:25:29;;;;;;;;;;;;;;;7.64;57.64;102679.41;5043257;28;19913;-79
2023/02/06 05:28:21;;;;;;;;;;;;;;;7.78;57.22;102677.97;5040185;28;19912;-79
2023/02/06 05:31:17;;;;;;;;;;;;;;;7.83;57.36;102679.94;5044029;28;19913;-79
2023/02/06 05:34:10;;;;;;;;;;;;;;;7.95;57.14;102678.78;5038273;28;19917;-79
2023/02/06 05:36:59;;;;;;;;;;;;;;;8.13;56.79;102673.06;5040289;28;20389;-80
2023/02/06 05:39:51;;;;;;;;;;;;;;;7.96;55.79;102680.44;5027052;28;19912;-78
2023/02/06 05:42:43;;;;;;;;;;;;;;;7.73;56.17;102689.56;5041050;28;19913;-79
2023/02/06 05:45:35;;;;;;;;;;;;;;;7.63;57.15;102697.53;5052552;28;19913;-79
2023/02/06 05:48:27;;;;;;;;;;;;;;;7.88;56.62;102699.81;5049671;28;19916;-78
2023/02/06 05:51:19;;;;;;;;;;;;;;;8.05;55.09;102697.06;5046771;28;19913;-79
2023/02/06 05:54:12;;;;;;;;;;;;;;;8.18;54.47;102704.03;5049338;28;19917;-79
2023/02/06 05:57:04;;;;;;;;;;;;;;;8.01;55.50;102695.94;5035950;28;19916;-79
2023/02/06 05:59:53;;;;;;;;;;;;;;;7.96;54.87;102709.41;5033269;28;19913;-81
2023/02/06 06:02:45;;;;;;;;;;;;;;;7.87;55.19;102713.63;5037184;28;19917;-81
2023/02/06 06:05:37;;;;;;;;;;;;;;;7.91;55.32;102712.88;5036276;28;19921;-80
2023/02/06 06:08:32;;;;;;;;;;;;;;;7.90;55.15;102710.41;5039981;28;19913;-81
2023/02/06 06:11:24;;;;;;;;;;;;;;;7.98;54.74;102721.63;5040248;28;19913;-80
2023/02/06 06:14:14;;;;;;;;;;;;;;;7.72;55.06;102733.94;5056559;28;19921;-79
2023/02/06 06:17:06;;;;;;;;;;;;;;;7.98;54.38;102726.22;5037597;28;19913;-85
2023/02/06 06:19:58;;;;;;;;;;;;;;;7.90;54.36;102724.75;5039149;28;20385;-80
2023/02/06 06:22:50;;;;;;;;;;;;;;;7.91;54.90;102729.13;5044368;28;19913;-81
2023/02/06 06:25:42;;;;;;;;;;;;;;;7.87;54.68;102738.00;5042722;28;19913;-81
2023/02/06 06:28:34;;;;;;;;;;;;;;;7.84;54.74;102733.03;5039324;28;19913;-80
2023/02/06 06:31:26;;;;;;;;;;;;;;;8.06;54.59;102731.22;5050847;28;20305;-81
2023/02/06 06:34:16;;;;;;;;;;;;;;;7.96;54.37;102726.47;5044794;28;19917;-81
2023/02/06 06:37:08;;;;;;;;;;;;;;;8.11;53.77;102728.59;5042865;28;20675;-81
2023/02/06 06:40:00;;;;;;;;;;;;;;;8.25;53.72;102729.88;5041750;28;19913;-81
2023/02/06 06:42:52;;;;;;;;;;;;;;;8.30;54.22;102738.09;5040161;28;19913;-81
2023/02/06 06:45:44;;;;;;;;;;;;;;;8.27;53.93;102738.59;5043777;28;19913;-81
2023/02/06 06:48:36;;;;;;;;;;;;;;;8.22;53.74;102743.94;5041042;28;19913;-81
2023/02/06 06:51:26;;;;;;;;;;;;;;;8.05;53.54;102740.41;5045760;28;19913;-81
2023/02/06 06:54:18;;;;;;;;;;;;;;;7.99;53.95;102738.69;5048936;28;19917;-81
2023/02/06 06:57:10;;;;;;;;;;;;;;;8.01;54.63;102745.53;5038149;28;20389;-81
2023/02/06 07:00:02;;;;;;;;;;;;;;;6.22;58.59;102751.59;5037442;28;19913;-75
2023/02/06 07:02:54;;;;;;;;;;;;;;;5.82;60.58;102740.66;5029863;28;19916;-76
2023/02/06 07:05:46;;;;;;;;;;;;;;;6.24;59.82;102736.81;5028014;28;19913;-75
2023/02/06 07:08:40;;;;;;;;;;;;;;;5.57;62.19;102747.06;5034493;28;20293;-75
2023/02/06 07:11:32;;;;;;;;;;;;;;;5.61;62.18;102747.44;5039533;28;20381;-76
2023/02/06 07:14:24;;;;;;;;;;;;;;;6.44;60.03;102756.16;5045941;28;19916;-80
2023/02/06 07:17:16;;;;;;;;;;;;;;;6.55;59.12;102751.81;5047106;28;19913;-80
2023/02/06 07:20:08;;;;;;;;;;;;;;;6.82;58.50;102739.38;5038938;28;19913;-80
2023/02/06 07:23:00;;;;;;;;;;;;;;;6.49;59.11;102752.75;5037107;28;19916;-79
2023/02/06 07:25:52;;;;;;;;;;;;;;;6.50;59.53;102754.41;5040277;28;19912;-80
2023/02/06 07:28:44;;;;;;;;;;;;;;;6.71;58.18;102745.63;5038627;28;19912;-80
2023/02/06 07:31:36;;;;;;;;;;;;;;;6.59;58.88;102744.84;5049347;28;19912;-80
2023/02/06 07:34:29;;;;;;;;;;;;;;;6.69;58.48;102742.38;5053022;28;19917;-80
2023/02/06 07:37:18;;;;;;;;;;;;;;;6.47;59.22;102738.66;5037899;28;20293;-79
2023/02/06 07:40:10;;;;;;;;;;;;;;;6.44;59.29;102741.84;5025254;28;19913;-80
2023/02/06 07:43:02;;;;;;;;;;;;;;;6.47;59.37;102754.03;5022916;28;19913;-79
2023/02/06 07:45:58;;;;;;;;;;;;;;;6.84;58.17;102760.78;5006890;28;19913;-79
2023/02/06 07:48:50;;;;;;;;;;;;;;;6.56;59.50;102758.00;5024908;28;19914;-80
2023/02/06 07:51:40;;;;;;;;;;;;;;;6.69;58.72;102757.75;5035424;28;19921;-79
2023/02/06 07:54:30;;;;;;;;;;;;;;;5.69;62.60;102757.06;5046055;28;19916;-79
2023/02/06 07:57:22;;;;;;;;;;;;;;;5.70;62.88;102746.03;5034832;28;19921;-79
2023/02/06 08:00:12;;;;;;;;;;;;;;;6.03;61.80;102753.59;5035816;28;19913;-79
2023/02/06 08:03:04;;;;;;;;;;;;;;;5.94;61.56;102750.41;5020650;28;19913;-79
2023/02/06 08:05:56;;;;;;;;;;;;;;;6.38;61.68;102756.28;5025719;28;19914;-80
2023/02/06 08:08:48;;;;;;;;;;;;;;;6.73;61.46;102756.22;5025768;28;19917;-81
2023/02/06 08:11:41;;;;;;;;;;;;;;;6.99;58.60;102746.72;5048397;28;19921;-81
2023/02/06 08:14:28;;;;;;;;;;;;;;;7.11;58.20;102739.41;5044288;28;20385;-81
2023/02/06 08:17:20;;;;;;;;;;;;;;;7.05;58.08;102741.19;5055055;28;20304;-80
2023/02/06 08:20:15;;;;;;;;;;;;;;;7.15;57.07;102741.38;5057899;28;19917;-80
2023/02/06 08:23:07;;;;;;;;;;;;;;;7.25;58.40;102748.84;5039433;28;19912;-81
2023/02/06 08:26:15;;;;;;;;;;;;;;;7.42;57.44;102746.97;5047498;28;19921;-79
2023/02/06 08:29:08;;;;;;;;;;;;;;;7.26;55.23;102750.50;5042534;28;19917;-80
2023/02/06 08:32:00;;;;;;;;;;;;;;;7.05;56.04;102748.47;5046236;28;20373;-82
2023/02/06 08:34:52;;;;;;;;;;;;;;;7.07;54.92;102757.97;5046962;28;19917;-82
2023/02/06 08:37:39;;;;;;;;;;;;;;;7.31;55.20;102756.00;5043726;28;19913;-81
2023/02/06 08:40:31;;;;;;;;;;;;;;;6.90;56.39;102757.13;5050435;28;19913;-84
2023/02/06 08:43:24;;;;;;;;;;;;;;;7.01;55.24;102750.03;5046345;28;19913;-81
2023/02/06 08:46:16;;;;;;;;;;;;;;;6.26;57.04;102742.78;5035556;28;20385;-81
2023/02/06 08:49:06;;;;;;;;;;;;;;;6.04;56.60;102740.94;5039189;28;19913;-82
2023/02/06 08:52:00;;;;;;;;;;;;;;;6.70;57.55;102744.00;5031737;28;19913;-85
2023/02/06 08:54:52;;;;;;;;;;;;;;;6.93;53.83;102736.88;5057376;28;19917;-84
2023/02/06 08:57:41;;;;;;;;;;;;;;;7.07;52.81;102736.34;5045803;28;19913;-83
2023/02/06 09:00:33;;;;;;;;;;;;;;;6.19;55.48;102730.47;5052098;28;19913;-84
2023/02/06 09:03:25;;;;;;;;;;;;;;;6.49;55.07;102735.72;5050412;28;19913;-86
2023/02/06 09:06:18;;;;;;;;;;;;;;;5.92;54.61;102728.25;5044801;28;19917;-86
2023/02/06 09:09:11;;;;;;;;;;;;;;;6.13;53.04;102736.81;5041224;28;20465;-86
2023/02/06 09:12:03;;;;;;;;;;;;;;;6.67;52.15;102739.06;5045892;28;19913;-84
2023/02/06 09:14:52;;;;;;;;;;;;;;;7.07;53.23;102735.50;5043484;28;19917;-84
2023/02/06 09:17:44;;;;;;;;;;;;;;;7.07;50.00;102732.81;5057850;28;19913;-83
2023/02/06 09:20:36;;;;;;;;;;;;;;;7.17;50.33;102727.59;5054121;28;19920;-84
2023/02/06 09:23:28;;;;;;;;;;;;;;;6.68;49.98;102734.47;5042548;28;19913;-84
2023/02/06 09:26:21;;;;;;;;;;;;;;;6.04;51.05;102738.22;5047533;28;19913;-85
2023/02/06 09:29:11;;;;;;;;;;;;;;;6.33;50.09;102734.56;5043631;28;20397;-84
2023/02/06 09:32:03;;;;;;;;;;;;;;;5.99;49.97;102739.72;5038816;28;19913;-84
2023/02/06 09:34:55;;;;;;;;;;;;;;;5.75;52.06;102729.94;5049647;28;20293;-85
2023/02/06 09:37:42;;;;;;;;;;;;;;;6.54;52.05;102733.94;5037392;28;20096;-85
2023/02/06 09:40:31;;;;;;;;;;;;;;;6.47;49.59;102737.81;5049636;28;19916;-85
2023/02/06 09:43:21;;;;;;;;;;;;;;;6.20;50.28;102727.50;5047274;28;19913;-86
2023/02/06 09:46:15;;;;;;;;;;;;;;;6.47;49.88;102727.00;5047906;28;19913;-84
2023/02/06 09:49:09;;;;;;;;;;;;;;;6.25;49.62;102719.53;5044714;28;19913;-85
2023/02/06 09:52:15;;;;;;;;;;;;;;;6.29;49.95;102714.50;5039629;28;20293;-85
2023/02/06 09:55:11;;;;;;;;;;;;;;;5.85;50.93;102714.00;5047913;28;19920;-84
2023/02/06 09:58:23;;;;;;;;;;;;;;;6.44;50.10;102706.72;5055459;28;20648;-85
2023/02/06 10:01:32;;;;;;;;;;;;;;;6.36;50.58;102716.00;5052208;28;19913;-85
2023/02/06 10:04:33;;;;;;;;;;;;;;;6.64;48.87;102711.69;5045718;28;19913;-85
2023/02/06 10:07:32;;;;;;;;;;;;;;;6.77;48.22;102700.59;5043639;28;19912;-85
2023/02/06 10:10:26;;;;;;;;;;;;;;;6.11;49.50;102703.81;5046824;28;19913;-84
2023/02/06 10:13:18;;;;;;;;;;;;;;;5.70;50.29;102694.75;5043647;28;19917;-84
2023/02/06 10:16:17;;;;;;;;;;;;;;;6.22;50.11;102694.88;5044197;28;20032;-85
2023/02/06 10:19:18;;;;;;;;;;;;;;;6.22;49.11;102689.47;5045990;28;19913;-85
2023/02/06 10:22:12;;;;;;;;;;;;;;;5.82;51.34;102689.34;5043034;28;19913;-83
2023/02/06 10:25:04;;;;;;;;;;;;;;;6.31;49.55;102696.13;5039729;28;19912;-78
2023/02/06 10:28:01;;;;;;;8.77;4.05;;;;;;;6.36;48.59;102678.16;5023570;28;20413;-82
2023/02/06 10:31:16;;;;;;;9.45;2.90;;;;;;;6.37;47.77;102684.38;5032171;28;20044;-78
2023/02/06 10:34:37;;;;;;;4.40;2.83;;;;;;;6.41;48.91;102683.66;5044720;28;20056;-80
2023/02/06 10:37:48;;;;;;;14.07;4.63;;;;;;;6.33;48.67;102688.63;5058828;28;20047;-80
2023/02/06 10:41:01;;;;;;;11.70;3.75;;;;;;;6.16;49.27;102682.31;5053271;28;20048;-81
2023/02/06 10:44:21;;;;;;;8.60;3.33;;;;;;;6.37;48.79;102678.97;5032556;28;20044;-83
2023/02/06 10:47:29;;;;;;;10.32;4.32;;;;;;;6.41;49.08;102680.16;5051100;28;20048;-82
2023/02/06 10:50:30;;;;;;;13.82;3.47;;;;;;;6.08;49.56;102677.28;5047535;28;20040;-83
2023/02/06 10:53:32;;;;;;;7.10;3.58;;;;;;;6.25;49.09;102676.28;5048860;28;20051;-82
2023/02/06 10:56:29;;;;;;;0.87;0.73;;;;;;;6.41;48.79;102674.75;5051891;28;20044;-82
2023/02/06 10:59:38;;;;;;;11.85;3.60;;;;;;;6.38;49.65;102659.84;5048842;28;20044;-82
2023/02/06 11:02:54;;;;;;;12.98;3.38;;;;;;;6.27;48.58;102668.78;5053644;28;20048;-83
2023/02/06 11:05:49;;;;;;;4.13;2.58;;;;;;;6.53;48.32;102664.72;5049112;28;20059;-82
2023/02/06 11:08:45;;;;;;;10.73;2.83;;;;;;;6.58;48.14;102656.72;5050916;28;20425;-80
2023/02/06 11:11:38;;;;;;;;;;;;;;;6.46;48.23;102655.94;5051135;28;20044;-80
2023/02/06 11:14:41;;;;;;;10.25;3.33;;;;;;;6.62;48.33;102655.16;5051720;28;19913;-82
2023/02/06 11:17:34;;;;;;;5.63;3.58;;;;;;;6.77;48.31;102658.16;5047848;28;20052;-83
2023/02/06 11:20:33;;;;;;;10.13;3.80;;;;;;;6.76;48.26;102656.50;5043460;28;20048;-83
2023/02/06 11:23:28;;;;;;;14.90;6.20;;;;;;;6.66;48.51;102664.44;5049224;28;20044;-83
2023/02/06 11:26:20;;;;;;;5.32;3.45;;;;;;;6.69;48.12;102661.25;5057172;28;20227;-83
2023/02/06 11:29:15;;;;;;;;;;;;;;;6.52;48.92;102660.38;5049675;28;20051;-81
2023/02/06 11:32:08;;;;;;;;;;;;;;;6.71;47.97;102655.59;5043713;28;19917;-81
2023/02/06 11:35:04;;;;;;;8.93;4.53;;;;;;;6.60;48.04;102648.38;5031127;28;20818;-83
2023/02/06 11:38:05;;;;;;;3.07;2.80;;;;;;;6.63;47.41;102634.38;5047326;28;20045;-83
2023/02/06 11:41:04;;;;;;;;;;;;;;;6.38;49.22;102643.63;5039396;28;20305;-81
2023/02/06 11:43:57;;;;;;;;;;;;;;;6.36;49.48;102628.69;5040959;28;19917;-81
2023/02/06 11:46:49;;;;;;;;;;;;;;;6.49;48.84;102628.44;5036205;28;19917;-81
2023/02/06 11:49:41;;;;;;;;;;;;;;;6.72;48.32;102624.81;5047189;28;19917;-82
2023/02/06 11:52:34;;;;;;;;;;;;;;;6.86;48.11;102623.44;5048122;28;19917;-82
2023/02/06 11:55:25;;;;;;;;;;;;;;;6.96;47.51;102622.81;5036201;28;19921;-82
2023/02/06 11:58:18;;;;;;;;;;;;;;;6.55;48.56;102621.25;5041326;28;19917;-82
2023/02/06 12:01:08;;;;;;;;;;;;;;;6.19;48.73;102617.03;5040471;28;20306;-82
2023/02/06 12:04:00;;;;;;;;;;;;;;;6.37;48.35;102606.84;5034498;28;19918;-81
2023/02/06 12:06:54;;;;;;;;;;;;;;;6.19;48.49;102601.66;5046803;28;19917;-81
2023/02/06 12:09:46;;;;;;;;;;;;;;;6.21;49.46;102593.28;5049841;28;19917;-80
2023/02/06 12:12:38;;;;;;;;;;;;;;;6.45;49.59;102584.03;5043452;28;19921;-81
2023/02/06 12:15:47;;;;;;;;;;;;;;;6.40;49.04;102582.03;5041615;28;20365;-82
2023/02/06 12:18:42;;;;;;;;;;;;;;;6.48;48.65;102571.91;5037224;28;19947;-82
2023/02/06 12:21:32;;;;;;;;;;;;;;;6.49;47.95;102570.88;5045167;28;19917;-82
2023/02/06 12:24:33;;;;;;;;;;;;;;;6.79;48.25;102574.94;5043483;28;19917;-82
2023/02/06 12:27:26;;;;;;;;;;;;;;;6.81;47.71;102571.97;5048090;28;19917;-82
2023/02/06 12:30:26;;;;;;;;;;;;;;;6.70;47.94;102560.19;5051444;28;19917;-82
2023/02/06 12:33:21;;;;;;;;;;;;;;;6.93;47.37;102556.50;5037615;28;19917;-81
2023/02/06 12:36:28;;;;;;;;;;;;;;;7.23;46.72;102548.88;5047223;28;19921;-84
2023/02/06 12:39:20;;;;;;;;;;;;;;;6.91;46.85;102533.50;5046069;28;19917;-82
2023/02/06 12:42:13;;;;;;;;;;;;;;;6.96;47.34;102536.28;5048359;28;20358;-84
2023/02/06 12:45:03;;;;;;;;;;;;;;;6.94;47.56;102524.88;5042377;28;19917;-86
2023/02/06 12:47:58;;;;;;;;;;;;;;;6.97;47.76;102518.97;5045740;28;20402;-84
2023/02/06 12:51:02;;;;;;;;;;;;;;;6.97;47.02;102519.78;5052046;28;19916;-83
2023/02/06 12:53:58;;;;;;;;;;;;;;;7.27;46.89;102516.72;5041737;28;19917;-84
2023/02/06 12:56:49;;;;;;;;;;;;;;;7.31;46.51;102507.06;5047397;28;19921;-83
2023/02/06 12:59:55;;;;;;;;;;;;;;;7.54;45.49;102497.88;5043637;28;19917;-84
2023/02/06 13:02:55;;;;;;;;;;;;;;;7.76;44.38;102492.47;5042683;28;19936;-83
2023/02/06 13:05:54;;;;;;;;;;;;;;;7.86;45.29;102498.00;5047145;28;19917;-84
2023/02/06 13:09:04;;;;;;;;;;;;;;;7.29;45.65;102490.22;5046674;28;19916;-84
2023/02/06 13:11:54;;;;;;;;;;;;;;;7.63;47.02;102494.47;5044475;28;19917;-83
2023/02/06 13:14:49;;;;;;;;;;;;;;;7.82;44.66;102484.16;5038305;28;20289;-83
2023/02/06 13:17:44;;;;;;;;;;;;;;;7.72;44.85;102487.53;5037180;28;19925;-83
2023/02/06 13:20:53;;;;;;;;;;;;;;;7.53;44.94;102483.50;5043122;28;19917;-84
2023/02/06 13:24:06;;;;;;;;;;;;;;;7.30;45.55;102481.88;5048753;28;19921;-84
2023/02/06 13:26:59;;;;;;;;;;;;;;;7.31;45.87;102478.06;5042356;28;19920;-83
2023/02/06 13:29:49;;;;;;;;;;;;;;;7.47;45.60;102464.75;5047696;28;20321;-80
2023/02/06 13:32:43;;;;;;;;;;;;;;;7.55;45.74;102464.31;5046926;28;19921;-82
2023/02/06 13:35:35;;;;;;;;;;;;;;;7.67;44.98;102465.81;5042367;28;19921;-84
2023/02/06 13:38:24;;;;;;;;;;;;;;;7.06;45.64;102471.53;5040111;28;19921;-83
2023/02/06 13:41:14;;;;;;;;;;;;;;;7.33;46.17;102469.72;5044798;28;19917;-83
2023/02/06 13:44:20;;;;;;;;;;;;;;;7.37;45.75;102476.25;5019875;28;19918;-83
2023/02/06 13:47:29;;;;;;;;;;;;;;;7.13;46.33;102482.97;5026904;28;19925;-82
2023/02/06 13:50:31;;;;;;;;;;;;;;;6.92;46.58;102481.84;5045877;28;19917;-83
2023/02/06 13:53:27;;;;;;;;;;;;;;;6.96;46.39;102488.38;5056645;28;19917;-84
2023/02/06 13:56:27;;;;;;;;;;;;;;;6.80;46.57;102471.13;5039056;28;20378;-83
2023/02/06 13:59:24;;;;;;;;;;;;;;;7.23;46.17;102475.00;5037143;28;19917;-83
2023/02/06 14:02:17;;;;;;;;;;;;;;;7.44;44.79;102466.09;5040792;28;19917;-82
2023/02/06 14:05:11;;;;;;;;;;;;;;;7.39;45.19;102466.00;5038113;28;20381;-83
2023/02/06 14:08:27;;;;;;;;;;;;;;;6.98;46.33;102459.22;5040776;28;20256;-83
2023/02/06 14:14:42;;;;;;;;;;;;;;;7.56;44.79;102458.66;5037204;28;19921;-82
2023/02/06 14:17:42;;;;;;;;;;;;;;;7.06;46.16;102447.97;5038937;28;20305;-82
2023/02/06 14:20:38;;;;;;;;;;;;;;;7.00;45.87;102431.94;5037358;28;19917;-82
2023/02/06 14:23:53;;;;;;;;;;;;;;;7.28;45.39;102432.59;5038920;28;19921;-82
2023/02/06 14:26:43;;;;;;;;;;;;;;;7.14;45.57;102430.50;5039022;28;19921;-82
2023/02/06 14:29:33;;;;;;;;;;;;;;;7.34;46.02;102435.38;5040968;28;19917;-82
2023/02/06 14:32:25;;;;;;;;;;;;;;;7.63;44.72;102431.38;5044205;28;19917;-82
2023/02/06 14:35:36;;;;;;;;;;;;;;;7.43;45.34;102431.97;5041437;28;19917;-82
2023/02/06 14:38:50;;;;;;;;;;;;;;;7.70;44.21;102438.25;5017310;28;19917;-81
2023/02/06 14:41:42;;;;;;;;;;;;;;;7.74;44.41;102443.97;5025464;28;19918;-80
2023/02/06 14:44:35;;;;;;;;;;;;;;;7.69;44.37;102450.16;5026214;28;19917;-79
2023/02/06 14:47:31;;;;;;;;;;;;;;;7.56;45.07;102449.72;5023417;28;20465;-78
2023/02/06 14:50:24;;;;;;;;;;;;;;;7.61;44.96;102447.91;5025947;28;19917;-78
2023/02/06 14:53:24;;;;;;;;;;;;;;;7.60;45.25;102457.09;5050346;28;20129;-78
2023/02/06 14:56:19;;;;;;;;;;;;;;;6.83;46.19;102461.69;5035411;28;20456;-79
2023/02/06 14:59:13;;;;;;;;;;;;;;;6.82;47.00;102457.34;5049848;28;20389;-78
2023/02/06 15:02:13;;;;;;;;;;;;;;;6.76;47.72;102455.63;5043408;28;19917;-78
2023/02/06 15:05:06;;;;;;;;;;;;;;;6.95;46.95;102446.22;5039012;28;20374;-78